Dennistown, Maine
Current Conditions -  °F | °C
As of 2:08 AM on Thursday 23 Oct 2014 (Local Time) from CYSC Reporting Station
Overcast Overcast  
Wind Chill: 38°   Ceiling: 2400
Heat Index: 45°   Visibility: 9mi
Dew Point: 37°   Wind: 14mph
Humidity: 76%   Direction: 40°NE
Pressure: 30.1"   Gusts: NA
Location:  45.7142°N, 70.304°W
Report Text: CYSC 230608Z AUTO 04012KT 9SM OVC024 07/03 A3010 RMK PCPN MISG SLP198
Loading
Personal Weather Stations






























Interactive Weather Map
Tropical Storm Tracking
New forecast layout! Learn more

10-Day Weather Forecast

Advertisements
Track Severe Weather on mobile